Flight Track Log - Related Links

Times and Time Zones

All times are in EDT time to prevent confusion due to time zone crossing. See the WBR2634 flight status page for this flight to view local times or setup timezone preferences in your user account.

Time Position Orientation Groundspeed Altitude Reporting Facility
EDT Latitude Longitude Course Direction KTS MPH feet Rate Location/Type
Fri 05:56:00 PM 40.8008 -91.0708 73° East 91 105 2,300  Level Chicago Center
Fri 05:57:02 PM 40.8167 -91.0333 61° Northeast 115 132 3,100 726 Climbing Chicago Center
Fri 05:58:00 PM 40.8502 -90.7996 57° Northeast  Level FlightAware Approximate
Fri 05:58:04 PM 40.8297 -90.9922 67° East 118 136 3,800  Level Chicago Center
Fri 05:59:00 PM 40.8667 -90.7501 90° East  Level FlightAware Approximate
Fri 05:59:06 PM 40.8439 -90.9497 66° East 125 144 4,500  Level Chicago Center
Fri 06:00:00 PM 40.8799 -90.6969 72° East  Level FlightAware Approximate
Fri 06:00:08 PM 40.8594 -90.9042 66° East 134 154 5,100  Level Chicago Center
Fri 06:01:00 PM 40.8926 -90.6435 73° East  Level FlightAware Approximate
Fri 06:01:10 PM 40.8772 -90.8461 68° East 141 162 5,700  Level Chicago Center
Fri 06:02:12 PM 40.8936 -90.7956 67° East 147 169 6,300 532 Climbing Chicago Center
Fri 06:03:14 PM 40.9103 -90.7472 65° Northeast 145 167 6,800 532 Climbing Chicago Center
Fri 06:04:16 PM 40.9294 -90.6975 63° Northeast 149 171 7,400 581 Climbing Chicago Center
Fri 06:05:18 PM 40.9467 -90.6492 65° Northeast 148 170 8,000 532 Climbing Chicago Center
Fri 06:06:20 PM 40.9628 -90.6003 66° East 145 167 8,500 484 Climbing Chicago Center
Fri 06:07:22 PM 40.9831 -90.5425 65° Northeast 145 167 9,000 290 Climbing Chicago Center
Fri 06:08:24 PM 41.0011 -90.4903 65° Northeast 154 177 9,100 48 Climbing Chicago Center
Fri 06:09:26 PM 41.0194 -90.4339 67° East 164 189 9,100  Level Chicago Center
Fri 06:10:28 PM 41.0400 -90.3775 64° Northeast 168 193 9,100  Level Chicago Center
Fri 06:11:31 PM 41.0594 -90.3211 65° Northeast 168 193 9,100  Level Chicago Center
Fri 06:12:33 PM 41.0814 -90.2664 62° Northeast 168 193 9,100  Level Chicago Center
Fri 06:13:35 PM 41.1053 -90.2006 64° Northeast 166 191 9,100  Level Chicago Center
Fri 06:14:37 PM 41.1239 -90.1458 66° East 163 188 9,100  Level Chicago Center
Fri 06:15:39 PM 41.1422 -90.0894 67° East 166 191 9,100  Level Chicago Center
Fri 06:16:41 PM 41.1600 -90.0356 66° East 162 186 9,100  Level Chicago Center
Fri 06:17:43 PM 41.1789 -89.9786 66° East 165 190 9,100  Level Chicago Center
Fri 06:18:45 PM 41.1981 -89.9219 66° East 167 192 9,100 -48 Level Chicago Center
Fri 06:19:47 PM 41.2156 -89.8642 68° East 168 193 9,000 -48 Descending Chicago Center
Fri 06:20:49 PM 41.2383 -89.7969 66° East 166 191 9,000  Level Chicago Center
Fri 06:21:52 PM 41.2575 -89.7428 65° Northeast 164 189 9,000  Level Chicago Center
Fri 06:22:54 PM 41.2772 -89.6875 65° Northeast 164 189 9,000  Level Chicago Center
Fri 06:23:56 PM 41.2944 -89.6314 68° East 164 189 9,000  Level Chicago Center
Fri 06:24:58 PM 41.3125 -89.5753 67° East 163 188 9,000  Level Chicago Center
Fri 06:26:00 PM 41.3308 -89.5186 67° East 165 190 9,000  Level Chicago Center
Fri 06:27:02 PM 41.3533 -89.4511 66° East 166 191 9,000  Level Chicago Center
Fri 06:28:04 PM 41.3733 -89.3953 64° Northeast 166 191 9,000  Level Chicago Center
Fri 06:29:06 PM 41.3908 -89.3378 68° East 167 192 9,000  Level Chicago Center
Fri 06:30:08 PM 41.4086 -89.2797 68° East 168 193 9,000  Level Chicago Center
Fri 06:31:11 PM 41.4275 -89.2233 66° East 167 192 9,000  Level Chicago Center
Fri 06:32:12 PM 41.4439 -89.1647 70° East 167 192 9,000 49 Level Chicago Center
Fri 06:33:14 PM 41.4653 -89.0978 67° East 165 190 9,100  Climbing Chicago Center
Fri 06:34:17 PM 41.4831 -89.0408 67° East 167 192 9,000 -48 Descending Chicago Center
Fri 06:35:19 PM 41.5003 -88.9828 68° East 169 194 9,000  Level Chicago Center
Fri 06:36:21 PM 41.5183 -88.9272 67° East 164 189 9,000  Level Chicago Center
Fri 06:37:23 PM 41.5392 -88.8719 63° Northeast 167 192 9,000 -145 Level Chicago Center
Fri 06:38:25 PM 41.5625 -88.8061 65° Northeast 164 189 8,700 -387 Descending Chicago Center
Fri 06:39:27 PM 41.5808 -88.7486 67° East 170 196 8,200 -290 Descending Chicago Center
Fri 06:40:29 PM 41.5992 -88.6917 67° East 167 192 8,100 -97 Descending Chicago Center
Fri 06:41:31 PM 41.6194 -88.6364 64° Northeast 166 191 8,000  Descending Chicago Center
Fri 06:42:33 PM 41.6458 -88.5833 56° Northeast 170 196 8,100  Climbing Chicago Center
Fri 06:43:35 PM 41.6797 -88.5406 43° Northeast 167 192 8,000 -48 Descending Chicago Center
Fri 06:44:37 PM 41.6933 -88.4681 76° East 166 191 8,000  Level Chicago Center
Fri 06:45:39 PM 41.7022 -88.4058 79° East 169 194 8,000  Level Chicago Center
Fri 06:46:41 PM 41.7294 -88.3586 52° Northeast 166 191 8,000  Level Chicago Center
Fri 06:47:43 PM 41.7714 -88.3758 343° North 159 183 8,000  Level Chicago Center
Fri 06:48:45 PM 41.8144 -88.3800 356° North 156 180 8,000 -48 Level Chicago Center
Fri 06:49:47 PM 41.8594 -88.3811 359° North 161 185 7,900 -387 Descending Chicago Center
Fri 06:50:49 PM 41.9133 -88.3764 North 164 189 7,200 -629 Descending Chicago Center
Fri 06:51:51 PM 41.9606 -88.3650 10° North 162 186 6,600 -774 Descending Chicago Center
Fri 06:52:53 PM 41.9678 -88.3036 81° East 189 217 5,600 -774 Descending Chicago Center
Fri 06:53:55 PM 41.9664 -88.2400 92° East 179 206 5,000 -629 Descending Chicago Center
Fri 06:54:57 PM 41.9675 -88.1800 89° East 169 194 4,300 -726 Descending Chicago Center
Fri 06:55:59 PM 41.9683 -88.1083 89° East 164 189 3,500 -765 Descending Chicago Center
Fri 06:56:39 PM 41.9667 -88.0667 93° East 163 188 3,000 -780 Descending Chicago TRACON
Fri 06:57:39 PM 41.9667 -88.0167 90° East 146 168 2,200 -850 Descending Chicago TRACON
Fri 06:58:39 PM 41.9667 -87.9500 90° East 135 155 1,300 -900 Descending Chicago TRACON

Login

Don't have an account? Register now (free) for customized features, flight alerts, and more!